sensor_id;sensor_type;location;lat;lon;timestamp;P1;durP1;ratioP1;P2;durP2;ratioP2
54745;SDS011;40640;48.130;11.356;2022-09-27T00:02:13;1.67;;;1.30;;
54745;SDS011;40640;48.130;11.356;2022-09-27T00:06:17;2.15;;;1.50;;
54745;SDS011;40640;48.130;11.356;2022-09-27T00:10:23;3.50;;;1.63;;
54745;SDS011;40640;48.130;11.356;2022-09-27T00:14:28;1.65;;;1.50;;
54745;SDS011;40640;48.130;11.356;2022-09-27T00:18:31;2.05;;;1.50;;
54745;SDS011;40640;48.130;11.356;2022-09-27T00:22:34;2.40;;;1.65;;
54745;SDS011;40640;48.130;11.356;2022-09-27T00:26:38;2.55;;;1.60;;
54745;SDS011;40640;48.130;11.356;2022-09-27T00:30:42;2.83;;;2.05;;
54745;SDS011;40640;48.130;11.356;2022-09-27T00:34:45;2.67;;;2.00;;
54745;SDS011;40640;48.130;11.356;2022-09-27T00:38:48;3.92;;;1.77;;
54745;SDS011;40640;48.130;11.356;2022-09-27T00:42:51;3.85;;;1.80;;
54745;SDS011;40640;48.130;11.356;2022-09-27T00:46:57;4.20;;;1.63;;
54745;SDS011;40640;48.130;11.356;2022-09-27T00:51:04;3.10;;;1.90;;
54745;SDS011;40640;48.130;11.356;2022-09-27T00:55:10;2.57;;;1.90;;
54745;SDS011;40640;48.130;11.356;2022-09-27T00:59:18;2.28;;;1.90;;
54745;SDS011;40640;48.130;11.356;2022-09-27T01:03:30;3.22;;;1.90;;
54745;SDS011;40640;48.130;11.356;2022-09-27T01:07:37;3.28;;;2.33;;
54745;SDS011;40640;48.130;11.356;2022-09-27T01:11:41;4.63;;;1.65;;
54745;SDS011;40640;48.130;11.356;2022-09-27T01:15:50;10.35;;;2.60;;
54745;SDS011;40640;48.130;11.356;2022-09-27T01:29:11;2.45;;;1.83;;
54745;SDS011;40640;48.130;11.356;2022-09-27T01:33:29;4.25;;;2.25;;
54745;SDS011;40640;48.130;11.356;2022-09-27T01:41:47;2.67;;;2.22;;
54745;SDS011;40640;48.130;11.356;2022-09-27T01:46:10;6.28;;;2.42;;
54745;SDS011;40640;48.130;11.356;2022-09-27T01:50:37;4.03;;;2.30;;
54745;SDS011;40640;48.130;11.356;2022-09-27T01:54:45;4.97;;;2.20;;
54745;SDS011;40640;48.130;11.356;2022-09-27T01:59:01;5.03;;;2.38;;
54745;SDS011;40640;48.130;11.356;2022-09-27T02:03:08;3.08;;;2.10;;
54745;SDS011;40640;48.130;11.356;2022-09-27T02:07:56;4.15;;;2.40;;
54745;SDS011;40640;48.130;11.356;2022-09-27T02:12:03;4.13;;;2.22;;
54745;SDS011;40640;48.130;11.356;2022-09-27T02:16:13;3.17;;;2.40;;
54745;SDS011;40640;48.130;11.356;2022-09-27T02:20:25;4.32;;;2.58;;
54745;SDS011;40640;48.130;11.356;2022-09-27T02:24:36;2.88;;;2.33;;
54745;SDS011;40640;48.130;11.356;2022-09-27T02:28:44;3.13;;;2.15;;
54745;SDS011;40640;48.130;11.356;2022-09-27T02:32:57;2.78;;;2.35;;
54745;SDS011;40640;48.130;11.356;2022-09-27T02:37:01;4.65;;;2.80;;
54745;SDS011;40640;48.130;11.356;2022-09-27T02:41:12;4.28;;;2.63;;
54745;SDS011;40640;48.130;11.356;2022-09-27T02:45:16;5.13;;;3.08;;
54745;SDS011;40640;48.130;11.356;2022-09-27T02:49:27;4.63;;;2.95;;
54745;SDS011;40640;48.130;11.356;2022-09-27T02:54:12;4.47;;;2.72;;
54745;SDS011;40640;48.130;11.356;2022-09-27T03:03:13;4.35;;;2.75;;
54745;SDS011;40640;48.130;11.356;2022-09-27T03:07:29;6.22;;;2.97;;
54745;SDS011;40640;48.130;11.356;2022-09-27T03:11:33;5.50;;;3.20;;
54745;SDS011;40640;48.130;11.356;2022-09-27T03:15:37;6.32;;;3.58;;
54745;SDS011;40640;48.130;11.356;2022-09-27T03:19:40;4.30;;;3.17;;
54745;SDS011;40640;48.130;11.356;2022-09-27T03:24:01;7.13;;;3.88;;
54745;SDS011;40640;48.130;11.356;2022-09-27T03:28:05;5.75;;;3.65;;
54745;SDS011;40640;48.130;11.356;2022-09-27T03:32:10;4.25;;;3.00;;
54745;SDS011;40640;48.130;11.356;2022-09-27T03:36:31;4.50;;;3.53;;
54745;SDS011;40640;48.130;11.356;2022-09-27T03:40:34;3.38;;;2.90;;
54745;SDS011;40640;48.130;11.356;2022-09-27T03:44:39;6.15;;;3.00;;
54745;SDS011;40640;48.130;11.356;2022-09-27T03:48:44;5.75;;;2.65;;
54745;SDS011;40640;48.130;11.356;2022-09-27T03:52:46;4.32;;;2.33;;
54745;SDS011;40640;48.130;11.356;2022-09-27T03:56:49;2.97;;;2.10;;
54745;SDS011;40640;48.130;11.356;2022-09-27T04:00:52;2.85;;;2.03;;
54745;SDS011;40640;48.130;11.356;2022-09-27T04:04:57;2.95;;;2.03;;
54745;SDS011;40640;48.130;11.356;2022-09-27T04:09:00;3.00;;;1.92;;
54745;SDS011;40640;48.130;11.356;2022-09-27T04:13:23;3.58;;;2.00;;
54745;SDS011;40640;48.130;11.356;2022-09-27T04:17:28;2.23;;;1.90;;
54745;SDS011;40640;48.130;11.356;2022-09-27T04:22:08;2.20;;;1.80;;
54745;SDS011;40640;48.130;11.356;2022-09-27T04:26:11;3.80;;;1.63;;
54745;SDS011;40640;48.130;11.356;2022-09-27T04:30:23;3.28;;;1.80;;
54745;SDS011;40640;48.130;11.356;2022-09-27T04:34:47;3.08;;;2.38;;
54745;SDS011;40640;48.130;11.356;2022-09-27T04:39:09;4.40;;;1.88;;
54745;SDS011;40640;48.130;11.356;2022-09-27T04:43:19;3.35;;;2.00;;
54745;SDS011;40640;48.130;11.356;2022-09-27T04:47:21;1.95;;;1.63;;
54745;SDS011;40640;48.130;11.356;2022-09-27T04:51:25;1.80;;;1.58;;
54745;SDS011;40640;48.130;11.356;2022-09-27T04:55:31;2.05;;;1.60;;
54745;SDS011;40640;48.130;11.356;2022-09-27T04:59:34;1.98;;;1.55;;
54745;SDS011;40640;48.130;11.356;2022-09-27T05:03:37;9.20;;;2.97;;
54745;SDS011;40640;48.130;11.356;2022-09-27T05:07:45;1.25;;;0.95;;
54745;SDS011;40640;48.130;11.356;2022-09-27T05:12:01;2.47;;;1.30;;
54745;SDS011;40640;48.130;11.356;2022-09-27T05:16:41;0.55;;;0.55;;
54745;SDS011;40640;48.130;11.356;2022-09-27T05:21:02;3.15;;;0.77;;
54745;SDS011;40640;48.130;11.356;2022-09-27T05:25:11;1.10;;;0.90;;
54745;SDS011;40640;48.130;11.356;2022-09-27T05:29:15;0.93;;;0.80;;
54745;SDS011;40640;48.130;11.356;2022-09-27T05:33:30;3.17;;;0.90;;
54745;SDS011;40640;48.130;11.356;2022-09-27T05:37:53;2.05;;;1.15;;
54745;SDS011;40640;48.130;11.356;2022-09-27T05:41:57;2.33;;;0.80;;
54745;SDS011;40640;48.130;11.356;2022-09-27T05:46:02;2.45;;;0.70;;
54745;SDS011;40640;48.130;11.356;2022-09-27T05:50:06;1.50;;;0.70;;
54745;SDS011;40640;48.130;11.356;2022-09-27T05:54:10;3.08;;;1.73;;
54745;SDS011;40640;48.130;11.356;2022-09-27T05:58:13;0.63;;;0.63;;
54745;SDS011;40640;48.130;11.356;2022-09-27T06:02:28;2.08;;;0.80;;
54745;SDS011;40640;48.130;11.356;2022-09-27T06:06:49;1.35;;;0.55;;
54745;SDS011;40640;48.130;11.356;2022-09-27T06:10:58;1.55;;;0.40;;
54745;SDS011;40640;48.130;11.356;2022-09-27T06:15:02;4.45;;;0.50;;
54745;SDS011;40640;48.130;11.356;2022-09-27T06:19:11;1.30;;;0.90;;
54745;SDS011;40640;48.130;11.356;2022-09-27T06:23:14;3.13;;;1.80;;
54745;SDS011;40640;48.130;11.356;2022-09-27T06:27:20;3.67;;;1.98;;
54745;SDS011;40640;48.130;11.356;2022-09-27T06:31:58;2.83;;;1.67;;
54745;SDS011;40640;48.130;11.356;2022-09-27T06:36:09;3.33;;;0.75;;
54745;SDS011;40640;48.130;11.356;2022-09-27T06:40:13;1.15;;;0.70;;
54745;SDS011;40640;48.130;11.356;2022-09-27T06:44:31;1.25;;;0.80;;
54745;SDS011;40640;48.130;11.356;2022-09-27T06:48:53;3.53;;;1.00;;
54745;SDS011;40640;48.130;11.356;2022-09-27T06:52:58;3.92;;;0.90;;
54745;SDS011;40640;48.130;11.356;2022-09-27T06:57:01;2.38;;;0.70;;
54745;SDS011;40640;48.130;11.356;2022-09-27T07:01:04;2.88;;;0.82;;
54745;SDS011;40640;48.130;11.356;2022-09-27T07:05:29;3.15;;;0.80;;
54745;SDS011;40640;48.130;11.356;2022-09-27T07:09:43;3.22;;;1.35;;
54745;SDS011;40640;48.130;11.356;2022-09-27T07:13:47;2.75;;;1.02;;
54745;SDS011;40640;48.130;11.356;2022-09-27T07:17:54;3.70;;;0.90;;
54745;SDS011;40640;48.130;11.356;2022-09-27T07:22:00;6.60;;;1.60;;
54745;SDS011;40640;48.130;11.356;2022-09-27T07:26:05;2.17;;;1.05;;
54745;SDS011;40640;48.130;11.356;2022-09-27T07:30:11;1.08;;;0.50;;
54745;SDS011;40640;48.130;11.356;2022-09-27T07:34:15;1.45;;;0.52;;
54745;SDS011;40640;48.130;11.356;2022-09-27T07:38:19;1.25;;;0.60;;
54745;SDS011;40640;48.130;11.356;2022-09-27T07:42:23;1.35;;;0.40;;
54745;SDS011;40640;48.130;11.356;2022-09-27T07:46:28;1.47;;;0.53;;
54745;SDS011;40640;48.130;11.356;2022-09-27T07:50:49;2.05;;;0.80;;
54745;SDS011;40640;48.130;11.356;2022-09-27T07:55:08;0.85;;;0.22;;
54745;SDS011;40640;48.130;11.356;2022-09-27T07:59:25;4.28;;;1.20;;
54745;SDS011;40640;48.130;11.356;2022-09-27T08:03:28;1.17;;;0.17;;
54745;SDS011;40640;48.130;11.356;2022-09-27T08:07:32;0.57;;;0.40;;
54745;SDS011;40640;48.130;11.356;2022-09-27T08:11:34;1.27;;;0.50;;
54745;SDS011;40640;48.130;11.356;2022-09-27T08:15:39;1.98;;;1.20;;
54745;SDS011;40640;48.130;11.356;2022-09-27T08:19:43;5.53;;;3.50;;
54745;SDS011;40640;48.130;11.356;2022-09-27T08:24:00;10.65;;;5.68;;
54745;SDS011;40640;48.130;11.356;2022-09-27T08:28:26;2.35;;;1.55;;
54745;SDS011;40640;48.130;11.356;2022-09-27T08:32:54;3.50;;;0.95;;
54745;SDS011;40640;48.130;11.356;2022-09-27T08:36:58;0.95;;;0.45;;
54745;SDS011;40640;48.130;11.356;2022-09-27T08:41:03;1.88;;;0.52;;
54745;SDS011;40640;48.130;11.356;2022-09-27T08:45:10;0.80;;;0.50;;
54745;SDS011;40640;48.130;11.356;2022-09-27T08:49:22;3.53;;;1.88;;
54745;SDS011;40640;48.130;11.356;2022-09-27T08:53:29;3.10;;;1.92;;
54745;SDS011;40640;48.130;11.356;2022-09-27T08:57:38;11.15;;;6.90;;
54745;SDS011;40640;48.130;11.356;2022-09-27T09:01:41;2.60;;;1.40;;
54745;SDS011;40640;48.130;11.356;2022-09-27T09:05:54;5.53;;;1.65;;
54745;SDS011;40640;48.130;11.356;2022-09-27T09:10:11;5.65;;;3.92;;
54745;SDS011;40640;48.130;11.356;2022-09-27T09:14:48;1.00;;;0.73;;
54745;SDS011;40640;48.130;11.356;2022-09-27T09:19:05;2.50;;;2.30;;
54745;SDS011;40640;48.130;11.356;2022-09-27T09:23:56;7.32;;;5.95;;
54745;SDS011;40640;48.130;11.356;2022-09-27T09:28:16;6.07;;;4.95;;
54745;SDS011;40640;48.130;11.356;2022-09-27T09:32:32;7.05;;;4.80;;
54745;SDS011;40640;48.130;11.356;2022-09-27T09:36:46;3.05;;;2.10;;
54745;SDS011;40640;48.130;11.356;2022-09-27T09:40:59;0.90;;;0.47;;
54745;SDS011;40640;48.130;11.356;2022-09-27T09:45:12;1.65;;;1.08;;
54745;SDS011;40640;48.130;11.356;2022-09-27T09:49:20;2.20;;;1.70;;
54745;SDS011;40640;48.130;11.356;2022-09-27T09:53:28;2.55;;;2.17;;
54745;SDS011;40640;48.130;11.356;2022-09-27T09:57:41;0.98;;;0.55;;
54745;SDS011;40640;48.130;11.356;2022-09-27T10:02:02;2.28;;;1.40;;
54745;SDS011;40640;48.130;11.356;2022-09-27T10:06:19;11.85;;;6.07;;
54745;SDS011;40640;48.130;11.356;2022-09-27T10:10:22;16.33;;;8.35;;
54745;SDS011;40640;48.130;11.356;2022-09-27T10:14:29;7.35;;;3.40;;
54745;SDS011;40640;48.130;11.356;2022-09-27T10:18:37;8.68;;;3.63;;
54745;SDS011;40640;48.130;11.356;2022-09-27T10:22:47;3.50;;;1.85;;
54745;SDS011;40640;48.130;11.356;2022-09-27T10:27:15;2.97;;;1.48;;
54745;SDS011;40640;48.130;11.356;2022-09-27T10:31:20;4.85;;;3.22;;
54745;SDS011;40640;48.130;11.356;2022-09-27T10:35:32;25.27;;;9.18;;
54745;SDS011;40640;48.130;11.356;2022-09-27T10:39:39;1.90;;;1.08;;
54745;SDS011;40640;48.130;11.356;2022-09-27T10:43:43;3.83;;;2.67;;
54745;SDS011;40640;48.130;11.356;2022-09-27T10:47:58;2.55;;;2.03;;
54745;SDS011;40640;48.130;11.356;2022-09-27T10:52:23;4.33;;;2.27;;
54745;SDS011;40640;48.130;11.356;2022-09-27T10:56:27;2.47;;;2.08;;
54745;SDS011;40640;48.130;11.356;2022-09-27T11:00:32;1.48;;;1.05;;
54745;SDS011;40640;48.130;11.356;2022-09-27T11:04:40;1.55;;;0.70;;
54745;SDS011;40640;48.130;11.356;2022-09-27T11:08:43;0.82;;;0.80;;
54745;SDS011;40640;48.130;11.356;2022-09-27T11:13:04;1.50;;;0.85;;
54745;SDS011;40640;48.130;11.356;2022-09-27T11:17:15;0.65;;;0.60;;
54745;SDS011;40640;48.130;11.356;2022-09-27T11:21:30;1.05;;;0.95;;
54745;SDS011;40640;48.130;11.356;2022-09-27T11:25:42;0.57;;;0.47;;
54745;SDS011;40640;48.130;11.356;2022-09-27T11:29:57;1.35;;;0.50;;
54745;SDS011;40640;48.130;11.356;2022-09-27T11:38:49;0.73;;;0.73;;
54745;SDS011;40640;48.130;11.356;2022-09-27T11:43:11;1.10;;;0.50;;
54745;SDS011;40640;48.130;11.356;2022-09-27T11:47:30;3.42;;;0.85;;
54745;SDS011;40640;48.130;11.356;2022-09-27T11:51:46;1.02;;;0.47;;
54745;SDS011;40640;48.130;11.356;2022-09-27T11:56:09;1.73;;;0.60;;
54745;SDS011;40640;48.130;11.356;2022-09-27T12:00:19;1.33;;;0.60;;
54745;SDS011;40640;48.130;11.356;2022-09-27T12:04:50;1.38;;;0.55;;
54745;SDS011;40640;48.130;11.356;2022-09-27T12:09:03;0.25;;;0.25;;
54745;SDS011;40640;48.130;11.356;2022-09-27T12:13:11;1.67;;;0.55;;
54745;SDS011;40640;48.130;11.356;2022-09-27T12:17:19;2.35;;;0.82;;
54745;SDS011;40640;48.130;11.356;2022-09-27T12:21:26;1.10;;;1.00;;
54745;SDS011;40640;48.130;11.356;2022-09-27T12:25:35;1.73;;;1.02;;
54745;SDS011;40640;48.130;11.356;2022-09-27T12:29:48;3.42;;;1.20;;
54745;SDS011;40640;48.130;11.356;2022-09-27T12:33:58;2.97;;;2.58;;
54745;SDS011;40640;48.130;11.356;2022-09-27T12:38:08;1.88;;;0.52;;
54745;SDS011;40640;48.130;11.356;2022-09-27T12:42:16;2.15;;;0.70;;
54745;SDS011;40640;48.130;11.356;2022-09-27T12:46:26;3.95;;;2.30;;
54745;SDS011;40640;48.130;11.356;2022-09-27T12:50:41;1.77;;;1.23;;
54745;SDS011;40640;48.130;11.356;2022-09-27T12:54:53;2.38;;;0.80;;
54745;SDS011;40640;48.130;11.356;2022-09-27T13:03:46;2.78;;;1.70;;
54745;SDS011;40640;48.130;11.356;2022-09-27T13:08:08;2.83;;;1.45;;
54745;SDS011;40640;48.130;11.356;2022-09-27T13:12:24;3.25;;;2.03;;
54745;SDS011;40640;48.130;11.356;2022-09-27T13:16:29;3.47;;;1.70;;
54745;SDS011;40640;48.130;11.356;2022-09-27T13:20:38;3.95;;;2.05;;
54745;SDS011;40640;48.130;11.356;2022-09-27T13:24:59;3.47;;;1.97;;
54745;SDS011;40640;48.130;11.356;2022-09-27T13:29:26;4.72;;;2.40;;
54745;SDS011;40640;48.130;11.356;2022-09-27T13:33:40;5.95;;;0.88;;
54745;SDS011;40640;48.130;11.356;2022-09-27T13:37:54;2.55;;;0.80;;
54745;SDS011;40640;48.130;11.356;2022-09-27T13:42:26;3.15;;;1.27;;
54745;SDS011;40640;48.130;11.356;2022-09-27T13:46:36;4.05;;;1.30;;
54745;SDS011;40640;48.130;11.356;2022-09-27T13:50:56;1.52;;;0.85;;
54745;SDS011;40640;48.130;11.356;2022-09-27T13:55:05;1.63;;;0.80;;
54745;SDS011;40640;48.130;11.356;2022-09-27T13:59:30;1.77;;;1.00;;
54745;SDS011;40640;48.130;11.356;2022-09-27T14:04:02;4.18;;;0.80;;
54745;SDS011;40640;48.130;11.356;2022-09-27T14:08:13;7.15;;;0.82;;
54745;SDS011;40640;48.130;11.356;2022-09-27T14:12:28;1.25;;;0.52;;
54745;SDS011;40640;48.130;11.356;2022-09-27T14:16:39;2.42;;;1.00;;
54745;SDS011;40640;48.130;11.356;2022-09-27T14:20:44;1.92;;;0.70;;
54745;SDS011;40640;48.130;11.356;2022-09-27T14:25:21;2.75;;;0.80;;
54745;SDS011;40640;48.130;11.356;2022-09-27T14:29:31;1.27;;;0.47;;
54745;SDS011;40640;48.130;11.356;2022-09-27T14:33:35;5.05;;;1.20;;
54745;SDS011;40640;48.130;11.356;2022-09-27T14:37:44;2.70;;;1.48;;
54745;SDS011;40640;48.130;11.356;2022-09-27T14:41:48;1.50;;;1.10;;
54745;SDS011;40640;48.130;11.356;2022-09-27T14:45:56;9.82;;;2.90;;
54745;SDS011;40640;48.130;11.356;2022-09-27T14:50:06;8.27;;;3.05;;
54745;SDS011;40640;48.130;11.356;2022-09-27T14:54:20;4.70;;;2.15;;
54745;SDS011;40640;48.130;11.356;2022-09-27T14:58:25;6.05;;;2.03;;
54745;SDS011;40640;48.130;11.356;2022-09-27T15:02:49;0.80;;;0.50;;
54745;SDS011;40640;48.130;11.356;2022-09-27T15:06:55;1.13;;;0.57;;
54745;SDS011;40640;48.130;11.356;2022-09-27T15:10:58;3.53;;;0.93;;
54745;SDS011;40640;48.130;11.356;2022-09-27T15:15:02;1.30;;;0.60;;
54745;SDS011;40640;48.130;11.356;2022-09-27T15:19:12;0.82;;;0.50;;
54745;SDS011;40640;48.130;11.356;2022-09-27T15:23:23;1.77;;;0.65;;
54745;SDS011;40640;48.130;11.356;2022-09-27T15:27:28;1.13;;;0.60;;
54745;SDS011;40640;48.130;11.356;2022-09-27T15:31:31;2.88;;;1.02;;
54745;SDS011;40640;48.130;11.356;2022-09-27T15:35:37;1.83;;;1.00;;
54745;SDS011;40640;48.130;11.356;2022-09-27T15:39:40;2.78;;;1.27;;
54745;SDS011;40640;48.130;11.356;2022-09-27T15:43:43;2.67;;;0.85;;
54745;SDS011;40640;48.130;11.356;2022-09-27T15:47:47;10.38;;;1.13;;
54745;SDS011;40640;48.130;11.356;2022-09-27T15:51:53;3.38;;;0.85;;
54745;SDS011;40640;48.130;11.356;2022-09-27T15:55:57;0.80;;;0.60;;
54745;SDS011;40640;48.130;11.356;2022-09-27T16:00:00;1.05;;;0.73;;
54745;SDS011;40640;48.130;11.356;2022-09-27T16:04:12;1.95;;;0.90;;
54745;SDS011;40640;48.130;11.356;2022-09-27T16:08:16;1.52;;;0.88;;
54745;SDS011;40640;48.130;11.356;2022-09-27T16:12:19;1.50;;;0.73;;
54745;SDS011;40640;48.130;11.356;2022-09-27T16:16:21;3.70;;;1.10;;
54745;SDS011;40640;48.130;11.356;2022-09-27T16:20:25;2.45;;;0.98;;
54745;SDS011;40640;48.130;11.356;2022-09-27T16:24:29;2.55;;;1.00;;
54745;SDS011;40640;48.130;11.356;2022-09-27T16:28:33;1.23;;;0.93;;
54745;SDS011;40640;48.130;11.356;2022-09-27T16:32:38;1.33;;;0.90;;
54745;SDS011;40640;48.130;11.356;2022-09-27T16:36:42;3.35;;;1.08;;
54745;SDS011;40640;48.130;11.356;2022-09-27T16:40:46;2.83;;;1.10;;
54745;SDS011;40640;48.130;11.356;2022-09-27T16:44:49;2.47;;;1.65;;
54745;SDS011;40640;48.130;11.356;2022-09-27T16:48:54;3.80;;;1.00;;
54745;SDS011;40640;48.130;11.356;2022-09-27T16:52:57;3.25;;;1.05;;
54745;SDS011;40640;48.130;11.356;2022-09-27T16:57:01;1.48;;;0.73;;
54745;SDS011;40640;48.130;11.356;2022-09-27T17:01:04;2.03;;;0.57;;
54745;SDS011;40640;48.130;11.356;2022-09-27T17:05:08;1.75;;;1.13;;
54745;SDS011;40640;48.130;11.356;2022-09-27T17:09:11;2.95;;;0.82;;
54745;SDS011;40640;48.130;11.356;2022-09-27T17:13:15;1.45;;;1.00;;
54745;SDS011;40640;48.130;11.356;2022-09-27T17:17:18;2.75;;;1.35;;
54745;SDS011;40640;48.130;11.356;2022-09-27T17:21:21;3.22;;;1.08;;
54745;SDS011;40640;48.130;11.356;2022-09-27T17:25:24;1.63;;;1.00;;
54745;SDS011;40640;48.130;11.356;2022-09-27T17:29:29;1.75;;;1.20;;
54745;SDS011;40640;48.130;11.356;2022-09-27T17:33:32;2.70;;;1.50;;
54745;SDS011;40640;48.130;11.356;2022-09-27T17:37:41;1.10;;;0.90;;
54745;SDS011;40640;48.130;11.356;2022-09-27T17:41:44;1.40;;;0.80;;
54745;SDS011;40640;48.130;11.356;2022-09-27T17:45:48;1.75;;;1.40;;
54745;SDS011;40640;48.130;11.356;2022-09-27T17:49:51;2.42;;;0.80;;
54745;SDS011;40640;48.130;11.356;2022-09-27T17:54:11;2.72;;;1.10;;
54745;SDS011;40640;48.130;11.356;2022-09-27T17:58:13;0.68;;;0.68;;
54745;SDS011;40640;48.130;11.356;2022-09-27T18:02:17;1.20;;;0.55;;
54745;SDS011;40640;48.130;11.356;2022-09-27T18:06:21;1.33;;;0.68;;
54745;SDS011;40640;48.130;11.356;2022-09-27T18:10:24;3.25;;;1.60;;
54745;SDS011;40640;48.130;11.356;2022-09-27T18:14:27;0.70;;;0.60;;
54745;SDS011;40640;48.130;11.356;2022-09-27T18:18:33;1.88;;;0.70;;
54745;SDS011;40640;48.130;11.356;2022-09-27T18:22:38;1.63;;;0.77;;
54745;SDS011;40640;48.130;11.356;2022-09-27T18:26:41;1.33;;;0.60;;
54745;SDS011;40640;48.130;11.356;2022-09-27T18:30:49;0.50;;;0.50;;
54745;SDS011;40640;48.130;11.356;2022-09-27T18:34:53;2.88;;;0.80;;
54745;SDS011;40640;48.130;11.356;2022-09-27T18:38:56;0.88;;;0.40;;
54745;SDS011;40640;48.130;11.356;2022-09-27T18:43:00;0.90;;;0.50;;
54745;SDS011;40640;48.130;11.356;2022-09-27T18:47:02;1.95;;;0.63;;
54745;SDS011;40640;48.130;11.356;2022-09-27T18:51:07;0.50;;;0.50;;
54745;SDS011;40640;48.130;11.356;2022-09-27T18:55:11;0.43;;;0.43;;
54745;SDS011;40640;48.130;11.356;2022-09-27T18:59:14;0.80;;;0.45;;
54745;SDS011;40640;48.130;11.356;2022-09-27T19:03:19;2.72;;;1.40;;
54745;SDS011;40640;48.130;11.356;2022-09-27T19:07:27;1.67;;;1.02;;
54745;SDS011;40640;48.130;11.356;2022-09-27T19:12:07;1.15;;;0.88;;
54745;SDS011;40640;48.130;11.356;2022-09-27T19:16:13;2.97;;;0.93;;
54745;SDS011;40640;48.130;11.356;2022-09-27T19:20:16;2.08;;;1.05;;
54745;SDS011;40640;48.130;11.356;2022-09-27T19:24:20;2.88;;;1.00;;
54745;SDS011;40640;48.130;11.356;2022-09-27T19:28:23;3.60;;;1.70;;
54745;SDS011;40640;48.130;11.356;2022-09-27T19:32:26;2.88;;;0.90;;
54745;SDS011;40640;48.130;11.356;2022-09-27T19:36:28;2.25;;;0.90;;
54745;SDS011;40640;48.130;11.356;2022-09-27T19:40:32;2.72;;;1.02;;
54745;SDS011;40640;48.130;11.356;2022-09-27T19:44:35;0.82;;;0.60;;
54745;SDS011;40640;48.130;11.356;2022-09-27T19:48:38;1.55;;;0.90;;
54745;SDS011;40640;48.130;11.356;2022-09-27T19:52:41;2.22;;;0.93;;
54745;SDS011;40640;48.130;11.356;2022-09-27T19:56:45;2.13;;;1.00;;
54745;SDS011;40640;48.130;11.356;2022-09-27T20:00:55;1.48;;;0.90;;
54745;SDS011;40640;48.130;11.356;2022-09-27T20:04:59;4.00;;;1.05;;
54745;SDS011;40640;48.130;11.356;2022-09-27T20:09:01;3.38;;;1.00;;
54745;SDS011;40640;48.130;11.356;2022-09-27T20:13:05;1.73;;;1.00;;
54745;SDS011;40640;48.130;11.356;2022-09-27T20:17:08;0.80;;;0.77;;
54745;SDS011;40640;48.130;11.356;2022-09-27T20:21:11;2.67;;;0.98;;
54745;SDS011;40640;48.130;11.356;2022-09-27T20:25:15;1.70;;;0.93;;
54745;SDS011;40640;48.130;11.356;2022-09-27T20:29:19;1.15;;;0.90;;
54745;SDS011;40640;48.130;11.356;2022-09-27T20:33:21;1.27;;;1.15;;
54745;SDS011;40640;48.130;11.356;2022-09-27T20:37:42;3.08;;;0.80;;
54745;SDS011;40640;48.130;11.356;2022-09-27T20:41:45;1.40;;;0.82;;
54745;SDS011;40640;48.130;11.356;2022-09-27T20:45:49;1.08;;;0.98;;
54745;SDS011;40640;48.130;11.356;2022-09-27T20:49:52;1.83;;;0.70;;
54745;SDS011;40640;48.130;11.356;2022-09-27T20:53:55;1.38;;;0.80;;
54745;SDS011;40640;48.130;11.356;2022-09-27T20:57:57;2.83;;;0.90;;
54745;SDS011;40640;48.130;11.356;2022-09-27T21:02:01;1.25;;;0.90;;
54745;SDS011;40640;48.130;11.356;2022-09-27T21:06:04;1.05;;;0.80;;
54745;SDS011;40640;48.130;11.356;2022-09-27T21:10:07;1.25;;;0.77;;
54745;SDS011;40640;48.130;11.356;2022-09-27T21:14:10;2.35;;;1.00;;
54745;SDS011;40640;48.130;11.356;2022-09-27T21:18:15;1.30;;;0.50;;
54745;SDS011;40640;48.130;11.356;2022-09-27T21:22:20;1.73;;;0.60;;
54745;SDS011;40640;48.130;11.356;2022-09-27T21:26:23;2.53;;;0.88;;
54745;SDS011;40640;48.130;11.356;2022-09-27T21:30:27;1.05;;;0.80;;
54745;SDS011;40640;48.130;11.356;2022-09-27T21:34:32;0.40;;;0.40;;
54745;SDS011;40640;48.130;11.356;2022-09-27T21:38:35;1.95;;;0.60;;
54745;SDS011;40640;48.130;11.356;2022-09-27T21:42:38;0.65;;;0.50;;
54745;SDS011;40640;48.130;11.356;2022-09-27T21:46:41;0.32;;;0.20;;
54745;SDS011;40640;48.130;11.356;2022-09-27T21:50:45;1.38;;;0.70;;
54745;SDS011;40640;48.130;11.356;2022-09-27T21:54:49;1.02;;;0.60;;
54745;SDS011;40640;48.130;11.356;2022-09-27T21:58:52;0.68;;;0.32;;
54745;SDS011;40640;48.130;11.356;2022-09-27T22:02:55;0.47;;;0.43;;
54745;SDS011;40640;48.130;11.356;2022-09-27T22:06:59;1.30;;;0.50;;
54745;SDS011;40640;48.130;11.356;2022-09-27T22:11:02;1.05;;;0.50;;
54745;SDS011;40640;48.130;11.356;2022-09-27T22:15:06;1.48;;;0.60;;
54745;SDS011;40640;48.130;11.356;2022-09-27T22:19:09;0.50;;;0.50;;
54745;SDS011;40640;48.130;11.356;2022-09-27T22:23:14;0.40;;;0.30;;
54745;SDS011;40640;48.130;11.356;2022-09-27T22:27:17;0.55;;;0.55;;
54745;SDS011;40640;48.130;11.356;2022-09-27T22:31:20;1.00;;;0.55;;
54745;SDS011;40640;48.130;11.356;2022-09-27T22:35:23;0.55;;;0.40;;
54745;SDS011;40640;48.130;11.356;2022-09-27T22:39:27;1.60;;;0.65;;
54745;SDS011;40640;48.130;11.356;2022-09-27T22:43:30;0.98;;;0.50;;
54745;SDS011;40640;48.130;11.356;2022-09-27T22:47:34;1.10;;;0.57;;
54745;SDS011;40640;48.130;11.356;2022-09-27T22:51:36;5.43;;;0.77;;
54745;SDS011;40640;48.130;11.356;2022-09-27T22:55:40;1.35;;;0.80;;
54745;SDS011;40640;48.130;11.356;2022-09-27T22:59:43;0.70;;;0.45;;
54745;SDS011;40640;48.130;11.356;2022-09-27T23:03:46;2.42;;;0.50;;
54745;SDS011;40640;48.130;11.356;2022-09-27T23:07:50;0.90;;;0.32;;
54745;SDS011;40640;48.130;11.356;2022-09-27T23:11:55;0.80;;;0.40;;
54745;SDS011;40640;48.130;11.356;2022-09-27T23:15:59;2.20;;;0.40;;
54745;SDS011;40640;48.130;11.356;2022-09-27T23:20:02;2.80;;;0.55;;
54745;SDS011;40640;48.130;11.356;2022-09-27T23:24:05;4.93;;;0.40;;
54745;SDS011;40640;48.130;11.356;2022-09-27T23:28:10;4.40;;;0.55;;
54745;SDS011;40640;48.130;11.356;2022-09-27T23:32:12;0.30;;;0.30;;
54745;SDS011;40640;48.130;11.356;2022-09-27T23:36:16;2.10;;;0.60;;
54745;SDS011;40640;48.130;11.356;2022-09-27T23:40:20;1.92;;;0.65;;
54745;SDS011;40640;48.130;11.356;2022-09-27T23:44:24;1.90;;;0.50;;
54745;SDS011;40640;48.130;11.356;2022-09-27T23:48:27;4.00;;;0.40;;
54745;SDS011;40640;48.130;11.356;2022-09-27T23:52:30;0.68;;;0.45;;
54745;SDS011;40640;48.130;11.356;2022-09-27T23:56:33;1.73;;;0.43;;
